.
WxDataArchive / Data Records for 2014-09-30
2014-09-29 September 2014 2014-10-01

Data Records for Tuesday, 30 September 2014

Time	Temp	Chill	HIndex	Humid	Dewpt	 Wind 	HiWind	WindDir	Rain 	Barom
-----	----	-----	------	-----	-----	------	------	-------	-----	-----
00:00	59.3	59.3	59.3	89	56.1	0	0	---	0.00	29.869 
00:05	59.2	59.2	59.2	89	56.0	0	0	---	0.00	29.869 
00:10	59.2	59.2	59.2	89	56.0	0	0	---	0.00	29.869 
00:15	59.0	59.0	59.0	89	55.8	0	0	---	0.00	29.864 
00:20	59.0	59.0	59.0	90	56.1	0	0	---	0.00	29.864 
00:25	59.0	59.0	59.0	90	56.1	0	0	---	0.00	29.864 
00:30	59.0	59.0	59.0	90	56.1	0	0	---	0.00	29.862 
00:35	58.9	58.9	58.9	90	56.0	0	0	---	0.00	29.862 
00:40	58.9	58.9	58.9	90	56.0	0	0	---	0.00	29.862 
00:45	58.7	58.7	58.7	90	55.8	0	0	---	0.00	29.856 
00:50	58.7	58.7	58.7	90	55.8	0	0	---	0.00	29.856 
00:55	58.7	58.7	58.7	90	55.8	0	0	---	0.00	29.856 
01:00	58.7	58.7	58.7	90	55.8	0	3	292	0.00	29.864 
01:05	59.8	59.8	59.8	91	57.2	0	3	292	0.00	29.864 
01:10	61.0	61.0	61.0	89	57.7	0	3	292	0.00	29.864 
01:15	61.8	61.8	61.8	87	57.9	0	1	292	0.00	29.870 
01:20	62.3	62.3	62.3	85	57.7	0	1	292	0.00	29.870 
01:25	62.6	62.6	62.6	84	57.7	0	1	292	0.00	29.870 
01:30	62.7	62.7	62.7	83	57.5	0	1	292	0.00	29.871 
01:35	62.7	62.7	62.7	82	57.1	0	1	292	0.00	29.871 
01:40	62.7	62.7	62.7	82	57.1	0	1	292	0.00	29.871 
01:45	62.7	62.7	62.7	82	57.1	0	1	292	0.00	29.870 
01:50	62.6	62.6	62.6	82	57.0	0	0	---	0.00	29.870 
01:55	62.4	62.4	62.4	83	57.2	0	1	292	0.00	29.870 
02:00	62.3	62.3	62.3	83	57.1	0	0	---	0.00	29.874 
02:05	62.1	62.1	62.1	83	56.9	0	0	---	0.00	29.874 
02:10	62.0	62.0	62.0	84	57.1	0	0	---	0.00	29.874 
02:15	61.8	61.8	61.8	84	56.9	0	1	292	0.00	29.868 
02:20	61.8	61.8	61.8	84	56.9	0	0	---	0.00	29.868 
02:25	61.6	61.6	61.6	84	56.7	0	0	---	0.00	29.868 
02:30	61.6	61.6	61.6	85	57.0	0	0	---	0.00	29.872 
02:35	61.5	61.5	61.5	85	56.9	0	0	---	0.00	29.872 
02:40	61.3	61.3	61.3	85	56.7	0	1	292	0.00	29.872 
02:45	61.3	61.3	61.3	86	57.1	0	0	---	0.00	29.871 
02:50	61.2	61.2	61.2	86	57.0	0	0	---	0.00	29.871 
02:55	61.2	61.2	61.2	86	57.0	0	1	292	0.00	29.871 
03:00	61.2	61.2	61.2	87	57.3	0	1	292	0.00	29.871 
03:05	61.2	61.2	61.2	87	57.3	0	1	292	0.00	29.871 
03:10	61.0	61.0	61.0	87	57.1	0	1	292	0.00	29.871 
03:15	61.0	61.0	61.0	87	57.1	0	1	292	0.00	29.866 
03:20	61.0	61.0	61.0	88	57.4	0	1	292	0.00	29.866 
03:25	61.0	61.0	61.0	88	57.4	0	1	292	0.00	29.866 
03:30	61.0	61.0	61.0	88	57.4	0	1	292	0.00	29.867 
03:35	60.9	60.9	60.9	88	57.3	0	1	292	0.00	29.867 
03:40	60.9	60.9	60.9	88	57.3	0	2	292	0.00	29.867 
03:45	60.7	60.7	60.7	88	57.1	0	3	292	0.00	29.867 
03:50	60.7	60.7	60.7	88	57.1	0	2	292	0.00	29.867 
03:55	60.5	60.5	60.5	89	57.2	1	3	292	0.00	29.867 
04:00	60.5	60.5	60.5	89	57.2	0	3	292	0.00	29.872 
04:05	60.5	60.5	60.5	89	57.2	0	1	292	0.00	29.872 
04:10	60.4	60.4	60.4	89	57.1	1	4	292	0.00	29.872 
04:15	60.4	60.4	60.4	89	57.1	0	1	292	0.00	29.877 
04:20	60.4	60.4	60.4	89	57.1	0	2	292	0.00	29.877 
04:25	60.4	60.4	60.4	89	57.1	0	3	292	0.00	29.877 
04:30	60.4	60.4	60.4	89	57.1	1	5	292	0.00	29.880 
04:35	60.2	60.2	60.2	89	56.9	1	3	270	0.00	29.880 
04:40	60.2	60.2	60.2	89	56.9	2	7	292	0.00	29.880 
04:45	60.1	60.1	60.1	90	57.2	0	1	315	0.07	29.879 
04:50	59.8	59.8	59.8	90	56.9	0	2	315	0.02	29.879 
04:55	59.5	59.5	59.5	91	56.9	0	2	315	0.00	29.879 
05:00	59.3	59.3	59.3	91	56.7	0	2	315	0.00	29.871 
05:05	59.2	59.2	59.2	92	56.9	0	1	315	0.00	29.871 
05:10	59.0	59.0	59.0	92	56.7	0	1	315	0.00	29.871 
05:15	58.9	58.9	58.9	92	56.6	0	0	---	0.00	29.873 
05:20	58.9	58.9	58.9	92	56.6	0	1	315	0.00	29.873 
05:25	58.9	58.9	58.9	92	56.6	0	1	315	0.00	29.873 
05:30	58.9	58.9	58.9	93	56.9	0	2	315	0.00	29.882 
05:35	58.7	58.7	58.7	93	56.7	0	2	315	0.00	29.882 
05:40	58.7	58.7	58.7	93	56.7	0	1	315	0.00	29.882 
05:45	58.6	58.6	58.6	93	56.6	1	4	315	0.00	29.884 
05:50	58.3	58.3	58.3	93	56.3	0	2	315	0.00	29.884 
05:55	58.1	58.1	58.1	93	56.1	0	1	315	0.00	29.884 
06:00	58.0	58.0	58.0	93	56.0	0	5	315	0.00	29.895 
06:05	57.8	57.8	57.8	93	55.8	1	5	292	0.00	29.895 
06:10	57.6	57.6	57.6	93	55.6	0	2	292	0.00	29.895 
06:15	57.5	57.5	57.5	93	55.5	0	2	292	0.00	29.892 
06:20	57.3	57.3	57.3	93	55.3	1	3	292	0.00	29.892 
06:25	57.0	57.0	57.0	93	55.0	1	3	292	0.00	29.892 
06:30	56.7	56.7	56.7	93	54.7	0	1	292	0.00	29.899 
06:35	56.6	56.6	56.6	93	54.6	0	3	292	0.00	29.899 
06:40	56.3	56.3	56.3	93	54.3	1	5	292	0.00	29.899 
06:45	56.0	56.0	56.0	93	54.0	1	3	315	0.01	29.918 
06:50	55.6	55.6	55.6	93	53.6	0	3	270	0.08	29.918 
06:55	55.3	55.3	55.3	93	53.3	0	1	270	0.06	29.918 
07:00	55.1	55.1	55.1	94	53.4	0	2	270	0.00	29.908 
07:05	54.8	54.8	54.8	94	53.1	1	3	270	0.00	29.908 
07:10	54.7	54.7	54.7	94	53.0	0	2	270	0.00	29.908 
07:15	54.5	54.5	54.5	94	52.8	0	3	270	0.00	29.917 
07:20	54.4	54.4	54.4	94	52.7	0	1	270	0.00	29.917 
07:25	54.4	54.4	54.4	94	52.7	0	2	270	0.00	29.917 
07:30	54.1	54.1	54.1	94	52.4	0	2	270	0.00	29.925 
07:35	53.9	53.9	53.9	94	52.2	0	3	270	0.00	29.925 
07:40	53.8	53.8	53.8	94	52.1	0	1	270	0.01	29.925 
07:45	53.6	53.6	53.6	94	51.9	0	3	270	0.00	29.931 
07:50	53.3	53.3	53.3	94	51.6	0	2	270	0.00	29.931 
07:55	53.2	53.2	53.2	94	51.5	0	3	270	0.00	29.931 
08:00	53.1	53.1	53.1	94	51.4	0	2	270	0.00	29.938 
08:05	52.9	52.9	52.9	94	51.2	0	2	270	0.00	29.938 
08:10	52.8	52.8	52.8	94	51.1	0	2	270	0.00	29.938 
08:15	52.8	52.8	52.8	94	51.1	0	2	270	0.00	29.950 
08:20	52.5	52.5	52.5	94	50.8	0	1	270	0.00	29.950 
08:25	52.5	52.5	52.5	94	50.8	0	1	270	0.00	29.950 
08:30	52.3	52.3	52.3	94	50.6	0	2	270	0.00	29.953 
08:35	51.9	51.9	51.9	94	50.2	0	2	270	0.00	29.953 
08:40	51.7	51.7	51.7	94	50.0	0	2	270	0.00	29.953 
08:45	51.7	51.7	51.7	94	50.0	0	1	270	0.00	29.953 
08:50	51.9	51.9	51.9	95	50.5	0	1	270	0.00	29.953 
08:55	51.7	51.7	51.7	95	50.3	0	2	270	0.00	29.953 
09:00	51.3	51.3	51.3	94	49.6	1	3	270	0.00	29.957 
09:05	50.8	50.8	50.8	94	49.1	0	3	292	0.00	29.957 
09:10	50.5	50.5	50.5	94	48.8	0	2	292	0.00	29.957 
09:15	50.5	50.5	50.5	94	48.8	0	3	292	0.00	29.960 
09:20	50.7	50.7	50.7	95	49.3	0	3	292	0.00	29.960 
09:25	51.0	51.0	51.0	95	49.6	0	1	292	0.00	29.960 
09:30	51.0	51.0	51.0	94	49.3	1	4	315	0.00	29.964 
09:35	50.7	50.7	50.7	94	49.0	1	4	315	0.00	29.964 
09:40	50.7	50.7	50.7	94	49.0	0	3	315	0.00	29.964 
09:45	50.7	50.7	50.7	94	49.0	0	2	315	0.00	29.963 
09:50	50.2	50.2	50.2	93	48.3	1	4	315	0.00	29.963 
09:55	50.4	50.4	50.4	93	48.5	0	1	315	0.00	29.963 
10:00	50.4	50.4	50.4	93	48.5	0	1	315	0.00	29.965 
10:05	50.2	50.2	50.2	92	48.0	0	5	315	0.00	29.965 
10:10	50.2	50.2	50.2	92	48.0	0	2	315	0.00	29.965 
10:15	50.4	50.4	50.4	92	48.2	0	1	315	0.00	29.968 
10:20	50.7	50.7	50.7	92	48.5	0	3	315	0.00	29.968 
10:25	51.0	51.0	51.0	92	48.8	0	3	0	0.00	29.968 
10:30	51.4	51.4	51.4	92	49.2	0	2	90	0.00	29.966 
10:35	51.4	51.4	51.4	91	48.9	0	2	315	0.00	29.966 
10:40	51.4	51.4	51.4	90	48.6	0	3	315	0.00	29.966 
10:45	51.4	51.4	51.4	90	48.6	0	3	315	0.00	29.970 
11:04	51.6	51.6	51.6	89	48.5	0	3	315	0.00	29.970 
11:05	51.9	51.9	51.9	89	48.8	0	0	---	0.00	29.971 
11:10	52.2	52.2	52.2	89	49.1	0	1	315	0.00	29.971 
11:15	52.3	52.3	52.3	88	48.9	0	1	315	0.00	29.973 
11:20	52.3	52.3	52.3	88	48.9	0	1	315	0.00	29.973 
11:25	52.3	52.3	52.3	86	48.2	0	2	315	0.00	29.973 
11:30	52.5	52.5	52.5	86	48.4	0	2	315	0.00	29.976 
11:35	52.5	52.5	52.5	86	48.4	0	4	158	0.00	29.976 
11:40	52.3	52.3	52.3	85	47.9	1	4	0	0.00	29.976 
11:45	52.3	52.3	52.3	84	47.6	0	2	0	0.00	29.978 
11:50	52.6	52.6	52.6	84	47.9	0	2	0	0.00	29.978 
11:55	52.8	52.8	52.8	84	48.1	0	1	0	0.00	29.978 
12:00	52.9	52.9	52.9	83	47.9	1	3	0	0.00	29.978 
12:05	53.1	53.1	53.1	83	48.1	0	3	292	0.00	29.978 
12:10	53.1	53.1	53.1	83	48.1	0	3	292	0.00	29.978 
12:15	53.2	53.2	53.2	82	47.8	0	2	292	0.00	29.975 
12:20	53.5	53.5	53.5	82	48.1	0	2	292	0.00	29.975 
12:25	53.8	53.8	53.8	82	48.4	0	3	315	0.00	29.975 
12:30	53.6	53.6	53.6	81	47.9	0	4	315	0.00	29.976 
12:35	53.9	53.9	53.9	82	48.5	0	1	315	0.00	29.976 
12:40	53.8	53.8	53.8	80	47.8	0	2	315	0.00	29.976 
12:45	53.9	53.9	53.9	81	48.2	0	2	0	0.00	29.979 
12:50	53.8	53.8	53.8	80	47.8	0	1	0	0.00	29.979 
12:55	53.8	53.8	53.8	80	47.8	0	3	0	0.00	29.979 
13:00	53.6	53.6	53.6	80	47.6	1	4	315	0.00	29.980 
13:05	53.5	53.5	53.5	80	47.5	0	2	315	0.00	29.980 
13:10	53.3	53.3	53.3	80	47.3	0	1	315	0.00	29.980 
13:15	53.3	53.3	53.3	80	47.3	0	3	315	0.00	29.980 
13:20	53.5	53.5	53.5	80	47.5	0	1	315	0.00	29.980 
13:25	53.8	53.8	53.8	81	48.1	0	1	315	0.00	29.980 
13:30	53.8	53.8	53.8	79	47.4	0	2	315	0.00	29.976 
13:35	54.1	54.1	54.1	80	48.1	0	2	0	0.00	29.976 
13:40	54.1	54.1	54.1	79	47.7	0	1	22	0.00	29.976 
13:45	53.9	53.9	53.9	79	47.5	0	2	0	0.00	29.976 
13:50	53.9	53.9	53.9	79	47.5	0	3	0	0.00	29.976 
13:55	53.9	53.9	53.9	79	47.5	0	2	0	0.00	29.976 
14:00	54.1	54.1	54.1	78	47.4	0	4	0	0.00	29.969 
14:05	54.2	54.2	54.2	77	47.1	0	1	0	0.00	29.969 
14:10	54.2	54.2	54.2	78	47.5	0	1	0	0.00	29.969 
14:15	54.1	54.1	54.1	77	47.0	1	3	0	0.00	29.970 
14:20	54.1	54.1	54.1	78	47.4	0	1	0	0.00	29.970 
14:25	54.1	54.1	54.1	78	47.4	0	1	0	0.00	29.970 
14:30	54.1	54.1	54.1	78	47.4	0	2	0	0.00	29.971 
14:35	54.1	54.1	54.1	79	47.7	0	2	338	0.00	29.971 
14:40	54.1	54.1	54.1	78	47.4	0	1	338	0.00	29.971 
14:45	54.1	54.1	54.1	79	47.7	1	3	338	0.00	29.964 
14:50	54.4	54.4	54.4	79	48.0	0	1	90	0.00	29.964 
14:55	54.5	54.5	54.5	79	48.1	0	1	90	0.00	29.964 
15:00	54.5	54.5	54.5	78	47.8	0	3	68	0.00	29.962 
15:05	54.4	54.4	54.4	77	47.3	0	2	68	0.00	29.962 
15:10	54.5	54.5	54.5	79	48.1	0	2	68	0.00	29.962 
15:15	54.5	54.5	54.5	78	47.8	0	3	45	0.00	29.960 
15:20	54.5	54.5	54.5	78	47.8	0	1	45	0.00	29.960 
15:25	54.7	54.7	54.7	78	48.0	0	1	45	0.00	29.960 
15:30	54.5	54.5	54.5	77	47.4	0	3	45	0.00	29.961 
15:35	54.7	54.7	54.7	77	47.6	0	1	45	0.00	29.961 
15:40	54.8	54.8	54.8	78	48.1	0	1	45	0.00	29.961 
15:45	54.8	54.8	54.8	77	47.7	0	1	45	0.00	29.961 
15:50	55.0	55.0	55.0	77	47.9	0	1	45	0.00	29.961 
15:55	55.0	55.0	55.0	77	47.9	0	2	22	0.00	29.961 
16:00	55.0	55.0	55.0	77	47.9	0	2	22	0.00	29.962 
16:05	55.1	55.1	55.1	77	48.0	0	1	45	0.00	29.962 
16:10	55.3	55.3	55.3	76	47.9	0	1	45	0.00	29.962 
16:15	55.4	55.4	55.4	76	48.0	0	1	45	0.00	29.962 
16:20	55.6	55.6	55.6	75	47.8	0	1	45	0.00	29.962 
16:25	55.7	55.7	55.7	75	47.9	0	1	45	0.00	29.962 
16:30	55.7	55.7	55.7	75	47.9	0	2	45	0.00	29.960 
16:35	55.7	55.7	55.7	75	47.9	0	1	45	0.00	29.960 
16:40	55.7	55.7	55.7	75	47.9	0	1	45	0.00	29.960 
16:45	55.6	55.6	55.6	74	47.4	0	2	45	0.00	29.958 
16:50	55.4	55.4	55.4	75	47.6	0	1	45	0.00	29.958 
16:55	55.6	55.6	55.6	77	48.5	0	1	45	0.00	29.958 
17:00	55.7	55.7	55.7	76	48.3	0	1	45	0.00	29.958 
17:05	55.9	55.9	55.9	76	48.4	0	1	45	0.00	29.958 
17:10	55.9	55.9	55.9	75	48.1	0	2	45	0.00	29.958 
17:15	55.9	55.9	55.9	75	48.1	0	1	45	0.00	29.953 
17:20	55.9	55.9	55.9	74	47.7	0	2	45	0.00	29.953 
17:25	55.9	55.9	55.9	75	48.1	0	1	45	0.00	29.953 
17:30	55.9	55.9	55.9	75	48.1	0	1	45	0.00	29.955 
17:35	55.7	55.7	55.7	75	47.9	0	0	---	0.00	29.955 
17:40	55.9	55.9	55.9	76	48.4	0	0	---	0.00	29.955 
17:45	55.9	55.9	55.9	75	48.1	0	1	45	0.00	29.951 
17:50	55.7	55.7	55.7	75	47.9	0	1	45	0.00	29.951 
17:55	55.7	55.7	55.7	75	47.9	0	1	45	0.00	29.951 
18:00	55.7	55.7	55.7	75	47.9	0	1	45	0.00	29.950 
18:05	55.9	55.9	55.9	75	48.1	0	0	---	0.00	29.950 
18:10	55.9	55.9	55.9	75	48.1	0	1	45	0.00	29.950 
18:15	55.9	55.9	55.9	75	48.1	0	1	45	0.00	29.959 
18:20	56.0	56.0	56.0	75	48.2	0	0	---	0.00	29.959 
18:25	56.0	56.0	56.0	76	48.5	0	0	---	0.00	29.959 
18:30	56.2	56.2	56.2	76	48.7	0	0	---	0.00	29.964 
18:35	56.0	56.0	56.0	76	48.5	0	0	---	0.00	29.964 
18:40	56.0	56.0	56.0	76	48.5	0	0	---	0.00	29.964 
18:45	56.0	56.0	56.0	76	48.5	0	0	---	0.00	29.965 
18:50	55.9	55.9	55.9	75	48.1	0	1	45	0.00	29.965 
18:55	55.9	55.9	55.9	76	48.4	0	1	45	0.00	29.965 
19:00	55.9	55.9	55.9	76	48.4	0	0	---	0.00	29.966 
19:05	55.9	55.9	55.9	76	48.4	0	0	---	0.00	29.966 
19:10	55.9	55.9	55.9	77	48.8	0	0	---	0.00	29.966 
19:15	55.7	55.7	55.7	77	48.6	0	0	---	0.00	29.967 
19:20	55.7	55.7	55.7	77	48.6	0	0	---	0.00	29.967 
19:25	55.7	55.7	55.7	78	48.9	0	0	---	0.00	29.967 
19:30	55.6	55.6	55.6	78	48.8	0	0	---	0.00	29.967 
19:35	55.6	55.6	55.6	78	48.8	0	0	---	0.00	29.967 
19:40	55.4	55.4	55.4	79	49.0	0	0	---	0.00	29.967 
19:45	55.4	55.4	55.4	79	49.0	0	0	---	0.00	29.967 
19:50	55.4	55.4	55.4	79	49.0	0	0	---	0.00	29.967 
19:55	55.4	55.4	55.4	80	49.3	0	0	---	0.00	29.967 
20:00	55.3	55.3	55.3	79	48.9	0	2	135	0.00	29.968 
20:05	55.3	55.3	55.3	78	48.6	0	2	135	0.00	29.968 
20:10	55.4	55.4	55.4	77	48.3	0	1	135	0.00	29.968 
20:15	55.4	55.4	55.4	76	48.0	0	1	135	0.00	29.972 
20:20	55.6	55.6	55.6	75	47.8	0	1	135	0.00	29.972 
20:25	55.7	55.7	55.7	76	48.3	0	1	135	0.00	29.972 
20:30	55.7	55.7	55.7	75	47.9	1	3	135	0.00	29.977 
20:35	55.7	55.7	55.7	75	47.9	0	2	90	0.00	29.977 
20:40	55.7	55.7	55.7	75	47.9	0	1	90	0.00	29.977 
20:45	55.7	55.7	55.7	75	47.9	0	1	90	0.00	29.977 
20:50	55.7	55.7	55.7	74	47.5	0	2	112	0.00	29.977 
20:55	55.7	55.7	55.7	74	47.5	0	2	112	0.00	29.977 
21:00	55.6	55.6	55.6	74	47.4	0	2	112	0.00	29.981 
21:05	55.7	55.7	55.7	73	47.2	0	4	112	0.00	29.981 
21:10	55.7	55.7	55.7	74	47.5	0	1	112	0.00	29.981 
21:15	55.7	55.7	55.7	74	47.5	0	1	112	0.00	29.985 
21:20	55.7	55.7	55.7	75	47.9	0	1	112	0.00	29.985 
21:25	55.7	55.7	55.7	75	47.9	0	1	112	0.00	29.985 
21:30	55.7	55.7	55.7	75	47.9	0	1	112	0.00	29.987 
21:35	55.6	55.6	55.6	75	47.8	0	3	112	0.00	29.987 
21:40	55.6	55.6	55.6	75	47.8	0	2	112	0.00	29.987 
21:45	55.7	55.7	55.7	74	47.5	1	5	112	0.00	29.995 
21:50	55.7	55.7	55.7	74	47.5	0	2	112	0.00	29.995 
21:55	55.7	55.7	55.7	75	47.9	0	3	112	0.00	29.995 
22:00	55.7	55.7	55.7	74	47.5	0	4	112	0.00	29.997 
22:05	55.7	55.7	55.7	75	47.9	0	2	112	0.00	29.997 
22:10	55.7	55.7	55.7	75	47.9	0	0	---	0.00	29.997 
22:15	55.6	55.6	55.6	76	48.2	0	1	112	0.00	29.998 
22:20	55.6	55.6	55.6	76	48.2	0	0	---	0.00	29.998 
22:25	55.6	55.6	55.6	76	48.2	0	0	---	0.00	29.998 
22:30	55.4	55.4	55.4	77	48.3	0	0	---	0.00	30.001 
22:35	55.4	55.4	55.4	77	48.3	0	0	---	0.00	30.001 
22:40	55.3	55.3	55.3	77	48.2	0	0	---	0.00	30.001 
22:45	55.3	55.3	55.3	78	48.6	0	0	---	0.00	29.999 
22:50	55.3	55.3	55.3	79	48.9	0	0	---	0.00	29.999 
22:55	55.1	55.1	55.1	77	48.0	0	1	112	0.00	29.999 
23:00	55.3	55.3	55.3	77	48.2	0	1	112	0.00	29.999 
23:05	55.4	55.4	55.4	77	48.3	0	1	112	0.00	29.999 
23:10	55.4	55.4	55.4	77	48.3	0	1	112	0.00	29.999 
23:15	55.4	55.4	55.4	77	48.3	0	0	---	0.00	29.995 
23:20	55.4	55.4	55.4	77	48.3	0	0	---	0.00	29.995 
23:25	55.4	55.4	55.4	77	48.3	0	2	112	0.00	29.995 
23:30	55.4	55.4	55.4	77	48.3	0	2	112	0.00	29.993 
23:35	55.6	55.6	55.6	76	48.2	0	1	112	0.00	29.993 
23:40	55.6	55.6	55.6	76	48.2	0	1	112	0.00	29.993 
23:45	55.6	55.6	55.6	76	48.2	0	2	112	0.00	29.996 
23:50	55.6	55.6	55.6	76	48.2	0	1	112	0.00	29.996 
23:55	55.6	55.6	55.6	76	48.2	0	2	112	0.00	29.996 

CoCoRaHS
IN-AL-39
A2 Web Hosting
Creative Commons License
GoDaddy
search engine by freefind advanced

loaded 2018-11-15 18:59:21 • last modified 2010-11-18 10:43:29
Privacy PolicyDisclaimer
• wx.awcolley.com is powered by PmWiki v.2002016 •
• all content (unless otherwise noted) © 2018 A W Colley